Time;durP1;ratioP1;P1;durP2;ratioP2;P2;SDS_P1;SDS_P2;PMS_P1;PMS_P2;Temp;Humidity;BMP_temperature;BMP_pressure;BME280_temperature;BME280_humidity;BME280_pressure;Samples;Min_cycle;Max_cycle;Signal;HPM_P1;HPM_P2
2021/10/17 00:00:28;;;;;;;18.52;7.85;;;7.30;90.60;;;;;;5037339;28;20036;-81
2021/10/17 00:02:55;;;;;;;14.13;7.70;;;7.20;90.50;;;;;;5023437;28;20596;-81
2021/10/17 00:05:24;;;;;;;15.75;7.47;;;7.20;90.50;;;;;;5021814;28;20025;-81
2021/10/17 00:07:50;;;;;;;15.98;7.38;;;7.20;90.50;;;;;;5055035;28;20068;-81
2021/10/17 00:10:19;;;;;;;18.05;7.85;;;7.10;90.50;;;;;;5053970;28;20041;-81
2021/10/17 00:12:45;;;;;;;;;;;7.10;90.50;;;;;;5037475;28;20628;-81
2021/10/17 00:15:15;;;;;;;24.15;9.10;;;7.10;90.40;;;;;;5054773;28;19908;-80
2021/10/17 00:17:42;;;;;;;23.02;8.85;;;7.00;90.60;;;;;;5054828;28;20112;-81
2021/10/17 00:20:09;;;;;;;17.33;7.90;;;7.00;90.70;;;;;;5037089;28;20029;-81
2021/10/17 00:22:35;;;;;;;17.38;8.75;;;7.00;90.70;;;;;;5054751;28;20354;-81
2021/10/17 00:25:01;;;;;;;24.45;9.98;;;7.00;90.70;;;;;;5018759;28;20029;-81
2021/10/17 00:27:26;;;;;;;18.00;9.40;;;6.90;90.70;;;;;;5037022;28;20032;-81
2021/10/17 00:29:52;;;;;;;16.73;8.60;;;6.90;90.60;;;;;;5037525;28;20021;-81
2021/10/17 00:32:17;;;;;;;21.90;9.60;;;7.00;90.70;;;;;;5037203;28;20507;-81
2021/10/17 00:34:44;;;;;;;19.92;9.50;;;7.00;90.60;;;;;;5055054;27;20029;-81
2021/10/17 00:37:10;;;;;;;20.60;9.48;;;6.90;90.50;;;;;;5020925;28;20045;-81
2021/10/17 00:39:36;;;;;;;21.50;9.80;;;6.90;90.50;;;;;;5054592;27;20045;-81
2021/10/17 00:42:04;;;;;;;23.80;9.30;;;6.80;90.50;;;;;;5054972;28;20021;-81
2021/10/17 00:44:31;;;;;;;21.70;9.33;;;6.80;90.50;;;;;;5043969;27;20021;-81
2021/10/17 00:46:57;;;;;;;18.20;10.05;;;6.80;90.50;;;;;;5051597;28;20037;-81
2021/10/17 00:49:22;;;;;;;20.70;9.65;;;6.80;90.50;;;;;;5044421;28;20028;-81
2021/10/17 00:51:48;;;;;;;20.02;10.48;;;6.70;90.50;;;;;;5049930;28;20060;-81
2021/10/17 00:54:14;;;;;;;17.80;9.55;;;6.70;90.50;;;;;;5046175;28;20032;-81
2021/10/17 00:56:42;;;;;;;21.30;9.88;;;6.70;90.50;;;;;;5033341;28;20058;-81
2021/10/17 00:59:12;;;;;;;20.52;9.82;;;6.70;90.50;;;;;;5028197;28;20748;-81
2021/10/17 01:01:38;;;;;;;18.00;9.70;;;6.70;90.60;;;;;;5050558;28;20029;-81
2021/10/17 01:04:04;;;;;;;21.80;10.45;;;6.70;90.60;;;;;;5027819;28;20037;-81
2021/10/17 01:06:30;;;;;;;24.63;10.85;;;6.70;90.60;;;;;;5046213;28;20382;-81
2021/10/17 01:08:56;;;;;;;21.05;9.90;;;6.70;90.60;;;;;;5011889;28;20037;-81
2021/10/17 01:11:23;;;;;;;18.83;10.02;;;6.70;90.60;;;;;;5034688;28;20081;-81
2021/10/17 01:13:49;;;;;;;24.10;9.98;;;6.70;90.70;;;;;;5033933;28;20036;-81
2021/10/17 01:16:15;;;;;;;16.20;9.02;;;6.80;90.70;;;;;;5051585;28;21721;-80
2021/10/17 01:18:41;;;;;;;20.77;9.27;;;6.80;90.80;;;;;;5051667;28;20041;-80
2021/10/17 01:21:07;;;;;;;23.60;9.88;;;6.80;90.80;;;;;;5051722;28;20020;-80
2021/10/17 01:23:33;;;;;;;21.40;10.50;;;6.80;90.80;;;;;;5033698;28;20033;-81
2021/10/17 01:25:58;;;;;;;24.92;10.05;;;6.80;90.80;;;;;;5033188;28;20530;-81
2021/10/17 01:28:24;;;;;;;18.13;9.65;;;6.90;90.90;;;;;;5051455;28;20093;-81
2021/10/17 01:30:50;;;;;;;20.65;8.65;;;6.80;90.90;;;;;;5049741;28;20033;-81
2021/10/17 01:33:18;;;;;;;25.13;10.25;;;6.80;91.00;;;;;;5022347;28;20059;-80
2021/10/17 01:35:43;;;;;;;19.30;9.88;;;6.80;91.00;;;;;;5051205;28;20048;-80
2021/10/17 01:38:10;;;;;;;18.25;8.88;;;6.80;91.00;;;;;;5049368;28;20173;-81
2021/10/17 01:40:36;;;;;;;22.98;10.43;;;6.90;91.00;;;;;;5025856;28;20404;-81
2021/10/17 01:43:02;;;;;;;23.83;10.50;;;6.90;91.00;;;;;;5012174;28;20120;-80
2021/10/17 01:45:28;;;;;;;22.38;10.20;;;6.90;91.00;;;;;;5047142;28;20029;-81
2021/10/17 01:47:53;;;;;;;23.80;9.93;;;6.90;90.90;;;;;;5021995;28;20103;-81
2021/10/17 01:50:20;;;;;;;22.52;9.55;;;6.80;91.00;;;;;;5032256;28;20599;-80
2021/10/17 01:52:46;;;;;;;21.05;9.73;;;6.80;91.00;;;;;;5031252;28;20489;-80
2021/10/17 01:55:12;;;;;;;20.33;9.88;;;6.80;91.10;;;;;;5032996;28;20516;-81
2021/10/17 01:57:38;;;;;;;18.38;8.63;;;6.80;91.10;;;;;;5032527;28;20025;-81
2021/10/17 02:00:06;;;;;;;23.27;10.00;;;6.80;91.10;;;;;;5016360;28;20029;-81
2021/10/17 02:02:32;;;;;;;19.95;10.32;;;6.80;91.10;;;;;;5050672;28;20028;-81
2021/10/17 02:04:57;;;;;;;21.35;9.38;;;6.80;91.00;;;;;;5031377;28;20024;-81
2021/10/17 02:07:24;;;;;;;22.10;10.30;;;6.80;91.10;;;;;;5049402;28;20041;-81
2021/10/17 02:09:49;;;;;;;18.35;9.45;;;6.80;91.20;;;;;;5015102;28;20788;-81
2021/10/17 02:12:21;;;;;;;25.48;11.00;;;6.70;91.20;;;;;;5018606;28;20100;-81
2021/10/17 02:14:47;;;;;;;18.85;9.68;;;6.80;91.20;;;;;;5032595;28;20037;-81
2021/10/17 02:17:13;;;;;;;23.67;10.55;;;6.80;91.20;;;;;;5050442;28;20109;-81
2021/10/17 02:19:39;;;;;;;24.17;10.85;;;6.80;91.20;;;;;;5032118;28;20029;-80
2021/10/17 02:22:05;;;;;;;28.42;10.38;;;6.70;91.20;;;;;;5030617;28;20818;-81
2021/10/17 02:24:30;;;;;;;20.63;9.00;;;6.70;91.20;;;;;;5050079;28;20062;-81
2021/10/17 02:26:56;;;;;;;26.90;11.52;;;6.70;91.30;;;;;;5050112;28;20033;-80
2021/10/17 02:29:22;;;;;;;20.77;10.32;;;6.70;91.30;;;;;;5032210;28;20036;-81
2021/10/17 02:31:48;;;;;;;24.63;11.30;;;6.70;91.30;;;;;;5026689;28;20033;-81
2021/10/17 02:34:13;;;;;;;22.00;10.55;;;6.70;91.40;;;;;;5015808;28;20120;-81
2021/10/17 02:36:39;;;;;;;21.48;10.10;;;6.70;91.40;;;;;;5050050;28;20033;-81
2021/10/17 02:39:05;;;;;;;20.15;10.15;;;6.70;91.40;;;;;;5047046;28;20509;-81
2021/10/17 02:41:31;;;;;;;24.40;11.82;;;6.70;91.30;;;;;;5049985;28;20029;-82
2021/10/17 02:43:56;;;;;;;21.50;10.25;;;6.70;91.30;;;;;;5049970;28;20401;-81
2021/10/17 02:46:22;;;;;;;24.73;10.52;;;6.70;91.40;;;;;;5049632;28;20100;-81
2021/10/17 02:48:48;;;;;;;20.58;11.13;;;6.60;91.30;;;;;;5031627;28;20040;-81
2021/10/17 02:51:13;;;;;;;24.65;11.90;;;6.60;91.30;;;;;;5031716;28;20045;-81
2021/10/17 02:53:39;;;;;;;24.45;10.75;;;6.60;91.30;;;;;;5045472;28;20028;-81
2021/10/17 02:56:05;;;;;;;22.23;11.15;;;6.60;91.30;;;;;;5014135;28;20426;-81
2021/10/17 02:58:31;;;;;;;21.77;10.77;;;6.50;91.30;;;;;;5029582;28;20029;-80
2021/10/17 03:00:57;;;;;;;27.17;11.52;;;6.50;91.30;;;;;;5043828;27;20089;-81
2021/10/17 03:03:22;;;;;;;20.63;10.75;;;6.50;91.20;;;;;;5012194;28;20039;-81
2021/10/17 03:05:48;;;;;;;21.83;9.80;;;6.50;91.20;;;;;;5010321;28;20127;-81
2021/10/17 03:08:14;;;;;;;27.05;11.40;;;6.40;91.20;;;;;;5028878;28;20052;-81
2021/10/17 03:10:39;;;;;;;24.92;10.48;;;6.40;91.20;;;;;;5014725;28;20033;-81
2021/10/17 03:13:05;;;;;;;20.88;10.57;;;6.40;91.30;;;;;;5031048;28;20401;-81
2021/10/17 03:15:31;;;;;;;22.63;10.32;;;6.40;91.30;;;;;;5024506;28;20047;-80
2021/10/17 03:17:56;;;;;;;22.08;10.18;;;6.40;91.30;;;;;;5051668;28;20137;-80
2021/10/17 03:20:23;;;;;;;27.13;11.10;;;6.40;91.30;;;;;;5027468;28;20029;-80
2021/10/17 03:22:49;;;;;;;23.30;11.95;;;6.30;91.30;;;;;;5030894;28;20133;-80
2021/10/17 03:25:14;;;;;;;26.63;10.95;;;6.30;91.40;;;;;;5048477;28;20108;-80
2021/10/17 03:27:40;;;;;;;28.90;11.95;;;6.30;91.40;;;;;;5014390;28;20048;-81
2021/10/17 03:30:07;;;;;;;29.45;11.13;;;6.20;91.40;;;;;;5040050;28;20033;-81
2021/10/17 03:32:33;;;;;;;21.80;10.32;;;6.20;91.50;;;;;;5048727;28;20055;-80
2021/10/17 03:35:03;;;;;;;23.58;11.18;;;6.20;91.50;;;;;;5031094;28;20041;-80
2021/10/17 03:37:32;;;;;;;24.15;10.73;;;6.20;91.50;;;;;;5031518;28;20118;-81
2021/10/17 03:39:58;;;;;;;21.58;10.85;;;6.20;91.50;;;;;;5031607;28;20041;-81
2021/10/17 03:42:25;;;;;;;24.55;11.55;;;6.10;91.50;;;;;;5031046;28;20048;-80
2021/10/17 03:44:50;;;;;;;22.45;9.98;;;6.20;91.50;;;;;;5031098;28;20029;-80
2021/10/17 03:47:16;;;;;;;22.13;10.05;;;6.20;91.50;;;;;;5044309;28;20478;-80
2021/10/17 03:49:41;;;;;;;27.73;12.15;;;6.20;91.50;;;;;;5025248;28;20029;-81
2021/10/17 03:52:07;;;;;;;22.17;11.35;;;6.20;91.50;;;;;;5014648;28;20037;-80
2021/10/17 03:54:33;;;;;;;24.60;10.90;;;6.20;91.50;;;;;;5030743;28;20037;-81
2021/10/17 03:56:58;;;;;;;24.30;10.52;;;6.20;91.60;;;;;;5030932;28;20033;-80
2021/10/17 03:59:24;;;;;;;22.45;10.32;;;6.20;91.60;;;;;;5048534;28;20485;-80
2021/10/17 04:01:50;;;;;;;17.75;10.30;;;6.20;91.60;;;;;;5014716;28;20025;-80
2021/10/17 04:04:15;;;;;;;23.25;10.25;;;6.20;91.60;;;;;;5048887;28;20036;-81
2021/10/17 04:06:41;;;;;;;20.85;9.90;;;6.20;91.60;;;;;;5014325;28;20040;-80
2021/10/17 04:09:07;;;;;;;19.05;9.45;;;6.20;91.50;;;;;;5014086;28;20112;-80
2021/10/17 04:11:32;;;;;;;22.30;10.40;;;6.20;91.50;;;;;;5028107;28;20026;-80
2021/10/17 04:13:58;;;;;;;24.30;10.38;;;6.20;91.50;;;;;;5011426;28;20030;-80
2021/10/17 04:16:24;;;;;;;23.67;9.77;;;6.20;91.50;;;;;;5028646;28;20038;-80
2021/10/17 04:18:49;;;;;;;26.85;10.02;;;6.20;91.60;;;;;;5033862;28;20374;-80
2021/10/17 04:21:16;;;;;;;25.48;10.23;;;6.20;91.60;;;;;;5048463;28;20572;-80
2021/10/17 04:23:42;;;;;;;17.70;10.20;;;6.20;91.60;;;;;;5048598;28;20798;-80
2021/10/17 04:26:07;;;;;;;23.33;10.13;;;6.20;91.60;;;;;;5030808;28;20029;-80
2021/10/17 04:28:33;;;;;;;26.00;11.10;;;6.30;91.70;;;;;;5030954;28;20033;-81
2021/10/17 04:30:59;;;;;;;24.45;11.10;;;6.30;91.60;;;;;;5033731;28;20041;-80
2021/10/17 04:33:24;;;;;;;18.88;9.23;;;6.30;91.60;;;;;;5051761;28;20766;-80
2021/10/17 04:35:50;;;;;;;24.95;10.73;;;6.30;91.50;;;;;;5033361;28;20047;-80
2021/10/17 04:38:17;;;;;;;22.88;10.52;;;6.30;91.60;;;;;;5033788;28;20052;-80
2021/10/17 04:40:42;;;;;;;21.05;10.40;;;6.30;91.60;;;;;;5051502;28;20047;-80
2021/10/17 04:43:10;;;;;;;22.17;10.15;;;6.30;91.70;;;;;;5046952;28;20449;-80
2021/10/17 04:45:37;;;;;;;27.05;10.27;;;6.30;91.70;;;;;;5045730;28;20491;-81
2021/10/17 04:48:04;;;;;;;21.48;9.57;;;6.30;91.70;;;;;;5014354;28;20128;-81
2021/10/17 04:50:30;;;;;;;25.42;10.18;;;6.30;91.80;;;;;;5030935;28;20037;-81
2021/10/17 04:52:55;;;;;;;22.20;9.98;;;6.40;91.80;;;;;;5013080;28;20089;-81
2021/10/17 04:55:21;;;;;;;21.90;10.20;;;6.40;91.80;;;;;;5049449;28;20029;-81
2021/10/17 04:57:46;;;;;;;24.20;10.48;;;6.50;91.90;;;;;;5031834;28;20026;-81
2021/10/17 05:00:12;;;;;;;22.23;9.98;;;6.50;91.90;;;;;;5033120;28;20029;-80
2021/10/17 05:02:38;;;;;;;25.52;9.90;;;6.50;91.80;;;;;;5051427;28;20021;-81
2021/10/17 05:05:07;;;;;;;21.35;10.32;;;6.50;91.80;;;;;;5033471;28;20041;-81
2021/10/17 05:07:32;;;;;;;24.58;10.23;;;6.50;91.80;;;;;;5058872;28;20102;-81
2021/10/17 05:09:58;;;;;;;26.85;11.65;;;6.50;91.90;;;;;;5050810;28;20036;-80
2021/10/17 05:12:24;;;;;;;25.15;11.73;;;6.50;91.90;;;;;;5023002;28;20033;-81
2021/10/17 05:14:50;;;;;;;19.67;9.90;;;6.50;91.90;;;;;;5017048;28;20434;-80
2021/10/17 05:17:16;;;;;;;22.13;11.15;;;6.50;92.00;;;;;;5051323;28;20033;-81
2021/10/17 05:19:41;;;;;;;21.35;10.48;;;6.40;92.00;;;;;;5016825;28;20500;-80
2021/10/17 05:22:07;;;;;;;18.98;10.18;;;6.40;91.90;;;;;;5033047;28;20029;-80
2021/10/17 05:24:33;;;;;;;21.90;10.45;;;6.50;92.00;;;;;;5051188;28;20056;-81
2021/10/17 05:26:58;;;;;;;24.98;10.13;;;6.40;91.90;;;;;;5016535;28;20044;-80
2021/10/17 05:29:24;;;;;;;24.40;11.10;;;6.40;91.90;;;;;;5007108;28;20052;-80
2021/10/17 05:31:49;;;;;;;25.50;11.57;;;6.40;92.00;;;;;;5050958;28;20029;-80
2021/10/17 05:34:15;;;;;;;22.80;11.18;;;6.40;92.00;;;;;;5036929;28;20112;-80
2021/10/17 05:36:41;;;;;;;21.13;10.48;;;6.40;92.10;;;;;;5048122;27;20101;-81
2021/10/17 05:39:06;;;;;;;22.55;10.98;;;6.40;92.10;;;;;;5048656;27;20049;-81
2021/10/17 05:41:32;;;;;;;25.52;10.68;;;6.40;92.10;;;;;;5033103;28;20054;-80
2021/10/17 05:43:57;;;;;;;24.17;11.10;;;6.40;92.10;;;;;;5050505;28;20112;-81
2021/10/17 05:46:23;;;;;;;19.10;9.88;;;6.40;92.10;;;;;;5032888;28;20477;-81
2021/10/17 05:48:49;;;;;;;33.45;11.57;;;6.40;92.20;;;;;;5043706;28;20823;-81
2021/10/17 05:51:15;;;;;;;22.60;10.57;;;6.40;92.40;;;;;;5032587;28;20056;-80
2021/10/17 05:53:40;;;;;;;21.30;10.35;;;6.40;92.40;;;;;;5043692;28;20498;-81
2021/10/17 05:56:06;;;;;;;23.48;9.95;;;6.40;92.20;;;;;;5050834;28;20029;-80
2021/10/17 05:58:31;;;;;;;24.45;12.38;;;6.40;92.10;;;;;;5032792;28;20115;-81
2021/10/17 06:00:57;;;;;;;24.95;11.45;;;6.40;92.40;;;;;;5044203;28;20038;-81
2021/10/17 06:03:23;;;;;;;28.05;12.15;;;6.30;92.10;;;;;;5045394;28;20028;-81
2021/10/17 06:05:49;;;;;;;24.30;12.07;;;6.30;92.30;;;;;;5050735;28;20037;-81
2021/10/17 06:08:14;;;;;;;32.38;12.50;;;6.30;92.30;;;;;;5043209;28;20047;-80
2021/10/17 06:10:41;;;;;;;24.88;12.32;;;6.30;92.30;;;;;;5013173;28;20434;-81
2021/10/17 06:13:07;;;;;;;21.52;11.85;;;6.30;92.40;;;;;;5028768;28;20045;-81
2021/10/17 06:15:33;;;;;;;27.67;11.85;;;6.30;92.30;;;;;;5027560;28;20090;-80
2021/10/17 06:17:58;;;;;;;28.73;12.48;;;6.30;92.30;;;;;;5052396;27;20040;-81
2021/10/17 06:20:24;;;;;;;20.77;10.88;;;6.40;92.40;;;;;;5043345;28;20021;-80
2021/10/17 06:22:49;;;;;;;21.92;11.52;;;6.40;92.40;;;;;;5046801;28;20044;-81
2021/10/17 06:25:15;;;;;;;26.42;11.07;;;6.30;92.40;;;;;;5028107;28;20029;-80
2021/10/17 06:27:41;;;;;;;24.13;11.88;;;6.30;92.40;;;;;;5025623;28;20490;-80
2021/10/17 06:30:07;;;;;;;27.85;13.48;;;6.30;92.40;;;;;;5025940;28;20093;-80
2021/10/17 06:32:32;;;;;;;26.48;12.70;;;6.40;92.40;;;;;;5011730;28;20393;-81
2021/10/17 06:34:58;;;;;;;26.70;12.70;;;6.30;92.40;;;;;;5031199;28;20526;-82
2021/10/17 06:37:24;;;;;;;26.20;11.85;;;6.30;92.50;;;;;;5034399;28;20052;-76
2021/10/17 06:39:49;;;;;;;19.92;11.30;;;6.40;92.50;;;;;;5024383;28;20573;-76
2021/10/17 06:42:15;;;;;;;28.20;12.98;;;6.40;92.50;;;;;;5024859;28;20118;-76
2021/10/17 06:44:40;;;;;;;25.95;12.02;;;6.40;92.40;;;;;;5022907;28;20098;-76
2021/10/17 06:47:06;;;;;;;23.77;11.23;;;6.50;92.40;;;;;;5002907;28;20034;-76
2021/10/17 06:49:32;;;;;;;21.92;11.63;;;6.50;92.40;;;;;;5007789;28;20041;-76
2021/10/17 06:51:57;;;;;;;29.50;12.77;;;6.50;92.30;;;;;;5023374;28;20036;-76
2021/10/17 06:54:23;;;;;;;26.27;12.60;;;6.50;92.30;;;;;;5007741;28;20041;-76
2021/10/17 06:56:49;;;;;;;35.97;14.05;;;6.50;92.20;;;;;;5041084;28;20509;-76
2021/10/17 06:59:14;;;;;;;25.65;13.43;;;6.40;92.20;;;;;;5025504;28;20108;-77
2021/10/17 07:01:40;;;;;;;27.17;12.50;;;6.40;92.30;;;;;;5024311;28;20148;-77
2021/10/17 07:04:06;;;;;;;33.70;14.63;;;6.40;92.30;;;;;;5040271;28;20033;-76
2021/10/17 07:06:31;;;;;;;32.15;13.00;;;6.40;92.30;;;;;;5040638;28;20026;-76
2021/10/17 07:08:57;;;;;;;31.55;13.38;;;6.40;92.30;;;;;;5040021;28;20533;-76
2021/10/17 07:11:23;;;;;;;36.78;14.35;;;6.40;92.30;;;;;;5023749;28;20363;-76
2021/10/17 07:13:48;;;;;;;32.95;14.93;;;6.40;92.20;;;;;;5040286;28;20496;-76
2021/10/17 07:16:14;;;;;;;36.08;15.77;;;6.40;92.20;;;;;;5024160;28;20041;-75
2021/10/17 07:18:40;;;;;;;35.15;15.05;;;6.40;92.20;;;;;;5039785;28;20033;-75
2021/10/17 07:21:05;;;;;;;26.55;13.73;;;6.40;92.20;;;;;;5039996;28;20024;-76
2021/10/17 07:23:31;;;;;;;35.90;14.93;;;6.40;92.20;;;;;;5025805;28;20030;-76
2021/10/17 07:25:57;;;;;;;35.30;15.52;;;6.50;92.20;;;;;;5023957;28;20070;-76
2021/10/17 07:28:22;;;;;;;32.35;14.93;;;6.50;92.20;;;;;;5038280;28;20072;-76
2021/10/17 07:30:48;;;;;;;35.20;15.10;;;6.50;92.20;;;;;;5007244;28;20045;-76
2021/10/17 07:33:13;;;;;;;27.63;14.43;;;6.60;92.20;;;;;;5047405;28;20124;-76
2021/10/17 07:35:39;;;;;;;32.28;14.77;;;6.60;92.20;;;;;;5028363;28;20071;-76
2021/10/17 07:38:05;;;;;;;35.20;14.35;;;6.80;92.20;;;;;;5013656;28;20033;-76
2021/10/17 07:40:31;;;;;;;35.50;16.33;;;6.80;92.00;;;;;;5046104;28;20044;-76
2021/10/17 07:42:56;;;;;;;37.15;15.65;;;7.00;91.90;;;;;;5013761;28;20037;-76
2021/10/17 07:45:22;;;;;;;28.10;13.98;;;7.20;91.70;;;;;;5030701;28;20029;-75
2021/10/17 07:47:48;;;;;;;33.53;15.10;;;7.30;91.50;;;;;;5029152;28;20566;-76
2021/10/17 07:50:14;;;;;;;31.33;14.40;;;7.50;91.30;;;;;;5046910;28;20061;-76
2021/10/17 07:52:39;;;;;;;31.65;13.88;;;7.70;91.40;;;;;;5027282;28;20495;-76
2021/10/17 07:55:07;;;;;;;36.38;13.98;;;7.80;90.90;;;;;;5023879;28;20040;-76
2021/10/17 07:57:49;;;;;;;30.42;13.63;;;7.90;90.80;;;;;;5020628;28;20120;-76
2021/10/17 08:00:20;;;;;;;33.63;12.63;;;8.00;90.60;;;;;;5022655;28;20026;-76
2021/10/17 08:02:46;;;;;;;28.60;13.63;;;8.20;90.50;;;;;;5039715;28;20030;-76
2021/10/17 08:05:11;;;;;;;31.15;13.23;;;8.30;90.40;;;;;;5026314;28;20053;-76
2021/10/17 08:07:37;;;;;;;23.00;11.70;;;8.40;90.30;;;;;;5028749;28;20060;-76
2021/10/17 08:10:03;;;;;;;25.30;10.95;;;8.50;90.10;;;;;;5010220;28;20128;-76
2021/10/17 08:12:30;;;;;;;20.10;10.85;;;8.60;90.00;;;;;;5028400;28;20026;-77
2021/10/17 08:14:55;;;;;;;28.67;11.10;;;8.70;89.70;;;;;;5028905;28;20033;-77
2021/10/17 08:17:21;;;;;;;24.27;11.63;;;8.80;89.40;;;;;;5028843;28;20442;-76
2021/10/17 08:19:46;;;;;;;26.52;11.05;;;8.90;89.20;;;;;;5027517;28;20030;-76
2021/10/17 08:22:12;;;;;;;21.27;11.63;;;9.00;88.90;;;;;;5011249;28;20455;-76
2021/10/17 08:24:37;;;;;;;24.52;12.50;;;9.10;88.70;;;;;;5029122;28;20088;-77
2021/10/17 08:27:03;;;;;;;26.35;11.40;;;9.20;88.50;;;;;;5014224;28;20029;-76
2021/10/17 08:29:29;;;;;;;24.27;11.43;;;9.20;88.20;;;;;;5033261;28;20071;-76
2021/10/17 08:31:54;;;;;;;23.58;12.10;;;9.30;87.80;;;;;;5047281;28;20037;-77
2021/10/17 08:34:20;;;;;;;25.33;11.48;;;9.30;87.50;;;;;;5033301;28;20050;-77
2021/10/17 08:36:46;;;;;;;28.58;12.23;;;9.30;87.60;;;;;;5021429;28;20037;-77
2021/10/17 08:39:11;;;;;;;21.95;11.80;;;9.30;87.90;;;;;;5033594;28;20064;-77
2021/10/17 08:41:38;;;;;;;23.05;10.85;;;9.30;88.10;;;;;;5045854;27;20047;-78
2021/10/17 08:44:04;;;;;;;25.73;11.75;;;9.40;88.30;;;;;;5041382;28;20485;-77
2021/10/17 08:46:33;;;;;;;22.30;12.23;;;9.50;88.40;;;;;;5024497;28;20390;-77
2021/10/17 08:48:59;;;;;;;30.05;11.68;;;9.60;88.50;;;;;;5029383;28;20036;-77
2021/10/17 08:51:26;;;;;;;22.92;11.48;;;9.70;88.10;;;;;;5045559;28;20037;-78
2021/10/17 08:53:52;;;;;;;21.92;10.95;;;9.80;87.70;;;;;;5051017;28;20040;-77
2021/10/17 08:56:19;;;;;;;27.05;10.23;;;10.00;87.50;;;;;;5033648;28;20059;-77
2021/10/17 08:58:44;;;;;;;25.80;10.70;;;10.10;87.00;;;;;;5014431;28;20473;-78
2021/10/17 09:01:18;;;;;;;18.42;9.45;;;10.20;86.60;;;;;;5038614;28;20029;-78
2021/10/17 09:03:58;;;;;;;19.45;10.23;;;10.30;85.60;;;;;;5030284;28;20021;-77
2021/10/17 09:06:32;;;;;;;21.90;10.60;;;10.40;85.70;;;;;;5033116;28;20065;-77
2021/10/17 09:09:20;;;;;;;19.45;9.18;;;10.60;85.90;;;;;;5028787;28;20037;-77
2021/10/17 09:11:51;;;;;;;20.77;9.30;;;10.80;85.40;;;;;;5038008;28;20021;-77
2021/10/17 09:14:18;;;;;;;23.13;10.43;;;11.00;84.70;;;;;;5043159;28;20481;-77
2021/10/17 09:16:47;;;;;;;18.73;9.20;;;11.20;83.80;;;;;;5030435;28;20041;-77
2021/10/17 09:19:27;;;;;;;18.73;8.70;;;11.40;82.80;;;;;;5052232;28;20085;-77
2021/10/17 09:22:01;;;;;;;21.75;9.75;;;11.40;82.60;;;;;;5022006;28;20048;-77
2021/10/17 09:24:33;;;;;;;19.27;9.25;;;11.50;82.70;;;;;;5029655;28;20032;-77
2021/10/17 09:27:07;;;;;;;21.95;8.50;;;11.60;82.60;;;;;;5051184;27;20025;-77
2021/10/17 09:29:35;;;;;;;17.70;8.48;;;11.70;82.50;;;;;;5074237;27;20023;-77
2021/10/17 09:32:01;;;;;;;14.25;7.57;;;11.80;82.00;;;;;;5050987;28;20029;-77
2021/10/17 09:34:30;;;;;;;20.90;7.45;;;11.90;81.70;;;;;;5050656;28;20039;-77
2021/10/17 09:37:05;;;;;;;;;;;11.90;81.00;;;;;;5045538;28;20025;-78
2021/10/17 09:39:36;;;;;;;16.88;7.65;;;11.90;79.80;;;;;;5045611;28;20038;-78
2021/10/17 09:42:02;;;;;;;13.98;7.53;;;12.00;80.30;;;;;;5054032;28;20025;-78
2021/10/17 09:44:41;;;;;;;16.23;7.32;;;12.00;80.70;;;;;;5046169;28;20033;-77
2021/10/17 09:47:08;;;;;;;16.55;6.90;;;12.10;80.90;;;;;;5031081;28;20108;-78
2021/10/17 09:49:34;;;;;;;11.95;7.28;;;12.10;80.70;;;;;;5013702;28;20025;-78
2021/10/17 09:52:09;;;;;;;16.60;6.97;;;12.10;80.60;;;;;;5031526;28;20053;-78
2021/10/17 09:54:36;;;;;;;15.95;6.72;;;12.20;80.40;;;;;;5022701;28;20030;-77
2021/10/17 09:57:07;;;;;;;14.32;6.38;;;12.10;79.80;;;;;;5035254;28;20030;-77
2021/10/17 09:59:34;;;;;;;15.48;6.57;;;12.10;79.30;;;;;;5030385;28;20051;-77
2021/10/17 10:02:07;;;;;;;12.98;7.05;;;12.10;79.60;;;;;;5011465;28;20034;-78
2021/10/17 10:04:36;;;;;;;18.58;6.72;;;12.10;79.70;;;;;;5028660;28;20085;-77
2021/10/17 10:07:02;;;;;;;13.80;6.75;;;12.10;79.70;;;;;;5029855;28;20030;-77
2021/10/17 10:09:30;;;;;;;13.23;6.28;;;12.20;79.20;;;;;;5033185;28;20043;-77
2021/10/17 10:11:56;;;;;;;13.00;6.50;;;12.20;79.30;;;;;;5038402;28;20025;-77
2021/10/17 10:14:24;;;;;;;13.88;6.13;;;12.30;79.30;;;;;;5032873;28;20064;-77
2021/10/17 10:16:55;;;;;;;15.05;6.38;;;12.30;79.00;;;;;;5043141;28;20022;-77
2021/10/17 10:19:21;;;;;;;9.57;5.25;;;12.40;78.20;;;;;;5032212;28;20025;-76
2021/10/17 10:21:46;;;;;;;15.57;7.05;;;12.50;77.80;;;;;;5030049;28;20461;-77
2021/10/17 10:24:13;;;;;;;12.77;6.63;;;12.50;77.60;;;;;;5032326;28;20036;-79
2021/10/17 10:26:41;;;;;;;12.48;6.38;;;12.60;76.20;;;;;;5030428;28;20021;-78
2021/10/17 10:29:07;;;;;;;15.52;6.28;;;12.60;75.80;;;;;;5044394;28;20112;-77
2021/10/17 10:31:42;;;;;;;11.60;5.95;;;12.60;75.60;;;;;;5029955;28;20150;-77
2021/10/17 10:34:21;;;;;;;16.77;5.90;;;12.70;75.00;;;;;;5011027;28;20428;-79
2021/10/17 10:36:48;;;;;;;;;;;12.70;75.10;;;;;;5038377;28;20035;-80
2021/10/17 10:39:16;;;;;;;13.38;5.55;;;12.80;74.70;;;;;;5012515;28;19921;-80
2021/10/17 10:41:52;;;;;;;15.77;6.15;;;12.80;75.50;;;;;;5041879;28;20021;-80
2021/10/17 10:44:23;;;;;;;10.82;6.25;;;12.90;75.50;;;;;;5039993;28;20018;-80
2021/10/17 10:46:51;;;;;;;16.17;7.05;;;12.90;75.20;;;;;;5030883;28;20025;-80
2021/10/17 10:49:41;;;;;;;12.95;6.25;;;13.00;74.90;;;;;;5026454;28;20025;-80
2021/10/17 10:52:09;;;;;;;13.57;5.57;;;13.10;75.70;;;;;;5072362;27;20017;-80
2021/10/17 10:54:35;;;;;;;10.75;5.50;;;13.20;75.30;;;;;;5043844;28;20049;-80
2021/10/17 10:57:01;;;;;;;12.68;5.53;;;13.30;75.10;;;;;;5041406;28;20030;-79
2021/10/17 10:59:52;;;;;;;14.55;6.15;;;13.30;74.80;;;;;;5010822;28;20159;-79
2021/10/17 11:02:18;;;;;;;14.00;5.88;;;13.40;74.20;;;;;;5014356;28;20039;-79
2021/10/17 11:04:46;;;;;;;10.00;5.07;;;13.50;74.60;;;;;;5010358;28;20034;-79
2021/10/17 11:07:21;;;;;;;15.85;5.90;;;13.60;73.80;;;;;;5010292;28;20033;-80
2021/10/17 11:09:48;;;;;;;12.02;5.40;;;13.60;73.90;;;;;;5009646;28;20041;-80
2021/10/17 11:12:39;;;;;;;11.60;5.53;;;13.70;73.70;;;;;;5003306;28;20394;-79
2021/10/17 11:15:06;;;;;;;14.13;5.90;;;13.70;74.20;;;;;;5011566;28;20091;-79
2021/10/17 11:17:32;;;;;;;12.32;5.60;;;13.70;72.60;;;;;;5036413;27;20065;-79
2021/10/17 11:19:58;;;;;;;13.43;5.20;;;13.80;73.30;;;;;;5016625;28;20072;-79
2021/10/17 11:22:24;;;;;;;8.93;4.90;;;13.80;74.10;;;;;;5033206;28;20087;-79
2021/10/17 11:24:58;;;;;;;11.90;5.72;;;13.80;73.20;;;;;;5009840;28;20022;-79
2021/10/17 11:27:24;;;;;;;16.17;5.53;;;13.90;73.80;;;;;;5033461;28;20493;-80
2021/10/17 11:29:50;;;;;;;12.93;5.10;;;13.90;74.50;;;;;;5008824;28;20038;-79
2021/10/17 11:32:18;;;;;;;8.85;4.70;;;14.00;74.40;;;;;;5019817;28;20052;-79
2021/10/17 11:35:01;;;;;;;12.00;4.65;;;14.00;74.20;;;;;;5022947;28;20030;-79
2021/10/17 11:37:30;;;;;;;13.25;4.93;;;14.00;75.10;;;;;;5021788;28;20052;-80
2021/10/17 11:40:00;;;;;;;9.02;4.82;;;13.90;73.70;;;;;;5011412;28;20045;-80
2021/10/17 11:42:28;;;;;;;9.70;4.78;;;13.90;74.60;;;;;;5011344;28;20028;-80
2021/10/17 11:44:55;;;;;;;13.48;4.93;;;13.90;74.00;;;;;;5029937;28;20033;-79
2021/10/17 11:47:22;;;;;;;12.07;4.47;;;13.90;74.40;;;;;;4993649;28;20382;-80
2021/10/17 11:49:48;;;;;;;10.80;4.32;;;13.90;75.00;;;;;;5009516;28;20119;-80
2021/10/17 11:52:15;;;;;;;8.93;4.30;;;13.90;74.70;;;;;;5008330;28;20432;-80
2021/10/17 11:54:48;;;;;;;11.57;4.65;;;13.90;74.80;;;;;;5009555;28;20026;-80
2021/10/17 11:57:33;;;;;;;7.10;4.22;;;13.90;74.40;;;;;;5024178;28;20386;-80
2021/10/17 12:00:04;;;;;;;10.13;4.65;;;13.90;73.60;;;;;;5009828;28;20034;-80
2021/10/17 12:02:32;;;;;;;12.90;4.70;;;14.00;73.90;;;;;;4996252;28;20030;-80
2021/10/17 12:04:57;;;;;;;13.52;4.90;;;14.00;73.90;;;;;;5009915;28;20105;-80
2021/10/17 12:07:24;;;;;;;9.50;4.20;;;14.10;72.60;;;;;;5022507;28;20148;-80
2021/10/17 12:09:50;;;;;;;10.13;4.30;;;14.10;72.90;;;;;;5024965;28;20062;-80
2021/10/17 12:12:22;;;;;;;11.20;4.30;;;14.10;73.90;;;;;;5033221;28;20166;-80
2021/10/17 12:15:03;;;;;;;11.73;4.68;;;14.10;72.40;;;;;;5016274;28;20034;-80
2021/10/17 12:17:29;;;;;;;8.23;4.05;;;14.20;72.70;;;;;;5025343;27;20034;-80
2021/10/17 12:20:00;;;;;;;11.00;4.43;;;14.20;72.90;;;;;;5009906;28;20026;-80
2021/10/17 12:22:27;;;;;;;7.88;4.28;;;14.20;72.80;;;;;;5025238;28;20057;-80
2021/10/17 12:24:57;;;;;;;11.90;4.60;;;14.30;72.50;;;;;;5024835;28;20033;-80
2021/10/17 12:27:34;;;;;;;8.25;4.28;;;14.30;72.20;;;;;;5032378;27;20017;-80
2021/10/17 12:30:33;;;;;;;13.68;5.15;;;14.30;72.20;;;;;;5013437;28;20026;-80
2021/10/17 12:33:00;;;;;;;10.63;4.70;;;14.30;71.40;;;;;;5001908;28;20486;-80
2021/10/17 12:35:35;;;;;;;10.55;4.07;;;14.30;72.50;;;;;;5009845;28;20425;-80
2021/10/17 12:38:13;;;;;;;9.93;4.10;;;14.30;71.90;;;;;;5009542;28;20818;-80
2021/10/17 12:40:51;;;;;;;9.27;4.85;;;14.30;72.20;;;;;;5009744;28;20022;-80